KAGS/AGS METAR and TAF weather

Enter ICAO airport designator
Station Type Date Time Source
KAGS METAR 2022/06/28 08:53 UTC NOAA

KAGS 280853Z AUTO 00000KT 10SM FEW070 SCT080 BKN110 23/22 A3006 RMK AO2 SLP177 T02280217 53000 $


Station Type Date Time Source
KAGS Decoded METAR 2022/06/28 08:53 UTC NOAA

AUGUSTA BUSH FIELD, GA, United States (KAGS) 33-22N 081-58W 44M
Jun 28, 2022 - 04:53 AM EDT / 2022.06.28 0853 UTC
Wind: Calm:0
Visibility: 10 mile(s):0
Sky conditions: mostly cloudy
Temperature: 73.0 F (22.8 C)
Dew Point: 71.1 F (21.7 C)
Relative Humidity: 93%
Pressure (altimeter): 30.06 in. Hg (1017 hPa)
Pressure tendency: 0.00 inches (0.0 hPa) higher than three hours ago
ob: KAGS 280853Z AUTO 00000KT 10SM FEW070 SCT080 BKN110 23/22 A3006 RMK AO2 SLP177 T02280217 53000
cycle: 9

Station Type Date Time Source
KAGS TAF 2022/06/28 09:54 UTC NOAA

TAF
AMD KAGS 280851Z 2809/2906 06005KT P6SM VCSH BKN035
FM281600 VRB05KT P6SM VCTS BKN040CB
FM290100 VRB04KT P6SM VCSH BKN035

Example: see airport list